sensor_id;sensor_type;location;lat;lon;timestamp;pressure;altitude;pressure_sealevel;temperature;humidity
13209;BME280;6669;42.678;23.332;2023-04-27T00:00:36;94243.25;;;6.81;100.00
13209;BME280;6669;42.678;23.332;2023-04-27T00:03:04;94264.75;;;6.90;100.00
13209;BME280;6669;42.678;23.332;2023-04-27T00:05:34;94253.91;;;6.86;100.00
13209;BME280;6669;42.678;23.332;2023-04-27T00:08:02;94258.25;;;6.78;100.00
13209;BME280;6669;42.678;23.332;2023-04-27T00:10:30;94224.13;;;6.58;100.00
13209;BME280;6669;42.678;23.332;2023-04-27T00:12:59;94252.91;;;6.71;100.00
13209;BME280;6669;42.678;23.332;2023-04-27T00:15:27;94254.19;;;6.67;100.00
13209;BME280;6669;42.678;23.332;2023-04-27T00:17:56;94262.91;;;6.66;100.00
13209;BME280;6669;42.678;23.332;2023-04-27T00:20:24;94258.88;;;6.63;100.00
13209;BME280;6669;42.678;23.332;2023-04-27T00:22:52;94275.63;;;6.59;100.00
13209;BME280;6669;42.678;23.332;2023-04-27T00:25:20;94268.97;;;6.57;100.00
13209;BME280;6669;42.678;23.332;2023-04-27T00:27:48;94266.56;;;6.55;100.00
13209;BME280;6669;42.678;23.332;2023-04-27T00:30:16;94270.59;;;6.49;100.00
13209;BME280;6669;42.678;23.332;2023-04-27T00:32:44;94278.34;;;6.49;100.00
13209;BME280;6669;42.678;23.332;2023-04-27T00:35:13;94275.19;;;6.37;100.00
13209;BME280;6669;42.678;23.332;2023-04-27T00:37:41;94261.31;;;6.30;100.00
13209;BME280;6669;42.678;23.332;2023-04-27T00:40:10;94268.09;;;6.31;100.00
13209;BME280;6669;42.678;23.332;2023-04-27T00:42:38;94257.63;;;6.33;100.00
13209;BME280;6669;42.678;23.332;2023-04-27T00:45:07;94262.09;;;6.22;100.00
13209;BME280;6669;42.678;23.332;2023-04-27T00:47:36;94264.00;;;6.20;100.00
13209;BME280;6669;42.678;23.332;2023-04-27T00:50:04;94256.06;;;6.14;100.00
13209;BME280;6669;42.678;23.332;2023-04-27T00:52:35;94270.09;;;6.11;100.00
13209;BME280;6669;42.678;23.332;2023-04-27T00:55:04;94262.28;;;6.03;100.00
13209;BME280;6669;42.678;23.332;2023-04-27T00:57:33;94260.97;;;5.99;100.00
13209;BME280;6669;42.678;23.332;2023-04-27T01:00:03;94263.41;;;6.00;100.00
13209;BME280;6669;42.678;23.332;2023-04-27T01:02:33;94263.03;;;5.95;100.00
13209;BME280;6669;42.678;23.332;2023-04-27T01:05:03;94278.00;;;5.92;100.00
13209;BME280;6669;42.678;23.332;2023-04-27T01:07:31;94276.53;;;5.89;100.00
13209;BME280;6669;42.678;23.332;2023-04-27T01:10:00;94272.34;;;5.88;100.00
13209;BME280;6669;42.678;23.332;2023-04-27T01:12:29;94271.16;;;5.82;100.00
13209;BME280;6669;42.678;23.332;2023-04-27T01:14:57;94277.44;;;5.80;100.00
13209;BME280;6669;42.678;23.332;2023-04-27T01:17:25;94286.28;;;5.77;100.00
13209;BME280;6669;42.678;23.332;2023-04-27T01:19:52;94282.69;;;5.70;100.00
13209;BME280;6669;42.678;23.332;2023-04-27T01:22:22;94283.16;;;5.65;100.00
13209;BME280;6669;42.678;23.332;2023-04-27T01:24:51;94286.84;;;5.63;100.00
13209;BME280;6669;42.678;23.332;2023-04-27T01:27:19;94286.69;;;5.64;100.00
13209;BME280;6669;42.678;23.332;2023-04-27T01:29:47;94286.84;;;5.63;100.00
13209;BME280;6669;42.678;23.332;2023-04-27T01:32:15;94292.94;;;5.62;100.00
13209;BME280;6669;42.678;23.332;2023-04-27T01:34:43;94288.75;;;5.61;100.00
13209;BME280;6669;42.678;23.332;2023-04-27T01:37:11;94289.06;;;5.57;100.00
13209;BME280;6669;42.678;23.332;2023-04-27T01:39:39;94296.31;;;5.62;100.00
13209;BME280;6669;42.678;23.332;2023-04-27T01:42:09;94292.94;;;5.62;100.00
13209;BME280;6669;42.678;23.332;2023-04-27T01:44:36;94300.84;;;5.60;100.00
13209;BME280;6669;42.678;23.332;2023-04-27T01:47:04;94299.72;;;5.63;100.00
13209;BME280;6669;42.678;23.332;2023-04-27T01:49:32;94301.63;;;5.61;100.00
13209;BME280;6669;42.678;23.332;2023-04-27T01:52:00;94302.75;;;5.58;100.00
13209;BME280;6669;42.678;23.332;2023-04-27T01:54:28;94304.53;;;5.57;100.00
13209;BME280;6669;42.678;23.332;2023-04-27T01:56:56;94297.59;;;5.58;100.00
13209;BME280;6669;42.678;23.332;2023-04-27T01:59:26;94291.41;;;5.51;100.00
13209;BME280;6669;42.678;23.332;2023-04-27T02:01:54;94300.97;;;5.59;100.00
13209;BME280;6669;42.678;23.332;2023-04-27T02:04:22;94295.16;;;5.56;100.00
13209;BME280;6669;42.678;23.332;2023-04-27T02:06:51;94269.53;;;5.37;100.00
13209;BME280;6669;42.678;23.332;2023-04-27T02:09:19;94297.44;;;5.60;100.00
13209;BME280;6669;42.678;23.332;2023-04-27T02:11:47;94300.47;;;5.55;100.00
13209;BME280;6669;42.678;23.332;2023-04-27T02:14:14;94300.75;;;5.52;100.00
13209;BME280;6669;42.678;23.332;2023-04-27T02:16:44;94297.31;;;5.43;100.00
13209;BME280;6669;42.678;23.332;2023-04-27T02:19:12;94296.19;;;5.46;100.00
13209;BME280;6669;42.678;23.332;2023-04-27T02:21:40;94312.13;;;5.41;100.00
13209;BME280;6669;42.678;23.332;2023-04-27T02:24:08;94302.75;;;5.40;100.00
13209;BME280;6669;42.678;23.332;2023-04-27T02:26:36;94311.66;;;5.46;100.00
13209;BME280;6669;42.678;23.332;2023-04-27T02:29:04;94307.34;;;5.46;100.00
13209;BME280;6669;42.678;23.332;2023-04-27T02:31:33;94305.41;;;5.48;100.00
13209;BME280;6669;42.678;23.332;2023-04-27T02:34:02;94304.75;;;5.46;100.00
13209;BME280;6669;42.678;23.332;2023-04-27T02:36:30;94315.06;;;5.46;100.00
13209;BME280;6669;42.678;23.332;2023-04-27T02:38:58;94305.72;;;5.45;100.00
13209;BME280;6669;42.678;23.332;2023-04-27T02:41:26;94308.13;;;5.47;100.00
13209;BME280;6669;42.678;23.332;2023-04-27T02:43:54;94307.84;;;5.50;100.00
13209;BME280;6669;42.678;23.332;2023-04-27T02:46:22;94313.44;;;5.45;100.00
13209;BME280;6669;42.678;23.332;2023-04-27T02:48:50;94322.50;;;5.49;100.00
13209;BME280;6669;42.678;23.332;2023-04-27T02:51:19;94318.28;;;5.48;100.00
13209;BME280;6669;42.678;23.332;2023-04-27T02:53:47;94316.38;;;5.50;100.00
13209;BME280;6669;42.678;23.332;2023-04-27T02:56:15;94311.38;;;5.49;100.00
13209;BME280;6669;42.678;23.332;2023-04-27T02:58:43;94309.75;;;5.48;100.00
13209;BME280;6669;42.678;23.332;2023-04-27T03:01:11;94321.69;;;5.49;100.00
13209;BME280;6669;42.678;23.332;2023-04-27T03:03:39;94318.44;;;5.47;100.00
13209;BME280;6669;42.678;23.332;2023-04-27T03:06:07;94316.28;;;5.42;100.00
13209;BME280;6669;42.678;23.332;2023-04-27T03:08:37;94311.59;;;5.37;100.00
13209;BME280;6669;42.678;23.332;2023-04-27T03:11:05;94326.59;;;5.42;100.00
13209;BME280;6669;42.678;23.332;2023-04-27T03:13:34;94310.94;;;5.35;100.00
13209;BME280;6669;42.678;23.332;2023-04-27T03:16:08;94321.25;;;5.35;100.00
13209;BME280;6669;42.678;23.332;2023-04-27T03:18:37;94338.63;;;5.33;100.00
13209;BME280;6669;42.678;23.332;2023-04-27T03:21:06;94320.34;;;5.27;100.00
13209;BME280;6669;42.678;23.332;2023-04-27T03:23:34;94338.19;;;5.38;100.00
13209;BME280;6669;42.678;23.332;2023-04-27T03:26:07;94334.97;;;5.36;100.00
13209;BME280;6669;42.678;23.332;2023-04-27T03:28:35;94350.53;;;5.34;100.00
13209;BME280;6669;42.678;23.332;2023-04-27T03:31:04;94333.19;;;5.36;100.00
13209;BME280;6669;42.678;23.332;2023-04-27T03:33:32;94347.00;;;5.35;100.00
13209;BME280;6669;42.678;23.332;2023-04-27T03:36:01;94348.78;;;5.35;100.00
13209;BME280;6669;42.678;23.332;2023-04-27T03:38:30;94346.94;;;5.27;100.00
13209;BME280;6669;42.678;23.332;2023-04-27T03:40:58;94346.19;;;5.17;100.00
13209;BME280;6669;42.678;23.332;2023-04-27T03:43:28;94352.16;;;5.17;100.00
13209;BME280;6669;42.678;23.332;2023-04-27T03:45:56;94356.63;;;5.15;100.00
13209;BME280;6669;42.678;23.332;2023-04-27T03:48:24;94358.56;;;5.13;100.00
13209;BME280;6669;42.678;23.332;2023-04-27T03:50:52;94344.06;;;5.12;100.00
13209;BME280;6669;42.678;23.332;2023-04-27T03:53:20;94358.84;;;5.10;100.00
13209;BME280;6669;42.678;23.332;2023-04-27T03:55:48;94360.56;;;5.19;100.00
13209;BME280;6669;42.678;23.332;2023-04-27T03:58:16;94362.88;;;5.13;100.00
13209;BME280;6669;42.678;23.332;2023-04-27T04:00:45;94363.72;;;5.13;100.00
13209;BME280;6669;42.678;23.332;2023-04-27T04:03:13;94372.81;;;5.07;100.00
13209;BME280;6669;42.678;23.332;2023-04-27T04:05:45;94374.16;;;5.12;100.00
13209;BME280;6669;42.678;23.332;2023-04-27T04:08:13;94379.19;;;5.13;100.00
13209;BME280;6669;42.678;23.332;2023-04-27T04:10:41;94384.06;;;5.06;100.00
13209;BME280;6669;42.678;23.332;2023-04-27T04:13:09;94385.31;;;5.02;100.00
13209;BME280;6669;42.678;23.332;2023-04-27T04:15:37;94382.59;;;5.04;100.00
13209;BME280;6669;42.678;23.332;2023-04-27T04:18:07;94391.19;;;4.95;100.00
13209;BME280;6669;42.678;23.332;2023-04-27T04:20:35;94393.91;;;4.93;100.00
13209;BME280;6669;42.678;23.332;2023-04-27T04:23:03;94408.84;;;4.89;100.00
13209;BME280;6669;42.678;23.332;2023-04-27T04:25:31;94405.06;;;4.84;100.00
13209;BME280;6669;42.678;23.332;2023-04-27T04:27:59;94404.25;;;4.83;100.00
13209;BME280;6669;42.678;23.332;2023-04-27T04:30:27;94411.03;;;4.84;100.00
13209;BME280;6669;42.678;23.332;2023-04-27T04:32:55;94408.84;;;4.89;100.00
13209;BME280;6669;42.678;23.332;2023-04-27T04:35:24;94414.00;;;4.89;100.00
13209;BME280;6669;42.678;23.332;2023-04-27T04:37:52;94402.88;;;4.89;100.00
13209;BME280;6669;42.678;23.332;2023-04-27T04:40:20;94414.22;;;4.96;100.00
13209;BME280;6669;42.678;23.332;2023-04-27T04:42:48;94403.69;;;4.89;100.00
13209;BME280;6669;42.678;23.332;2023-04-27T04:45:16;94421.16;;;4.96;100.00
13209;BME280;6669;42.678;23.332;2023-04-27T04:47:44;94419.34;;;5.06;100.00
13209;BME280;6669;42.678;23.332;2023-04-27T04:50:12;94422.88;;;5.05;100.00
13209;BME280;6669;42.678;23.332;2023-04-27T04:52:42;94438.06;;;5.08;100.00
13209;BME280;6669;42.678;23.332;2023-04-27T04:55:10;94432.75;;;5.10;100.00
13209;BME280;6669;42.678;23.332;2023-04-27T04:57:38;94432.59;;;5.11;100.00
13209;BME280;6669;42.678;23.332;2023-04-27T05:00:07;94433.16;;;5.05;100.00
13209;BME280;6669;42.678;23.332;2023-04-27T05:02:38;94444.94;;;5.07;100.00
13209;BME280;6669;42.678;23.332;2023-04-27T05:05:07;94416.41;;;4.91;100.00
13209;BME280;6669;42.678;23.332;2023-04-27T05:07:35;94441.41;;;5.18;100.00
13209;BME280;6669;42.678;23.332;2023-04-27T05:10:05;94445.53;;;5.29;100.00
13209;BME280;6669;42.678;23.332;2023-04-27T05:12:33;94434.13;;;5.32;100.00
13209;BME280;6669;42.678;23.332;2023-04-27T05:15:01;94457.69;;;5.37;100.00
13209;BME280;6669;42.678;23.332;2023-04-27T05:17:30;94455.31;;;5.26;100.00
13209;BME280;6669;42.678;23.332;2023-04-27T05:19:58;94455.31;;;5.26;100.00
13209;BME280;6669;42.678;23.332;2023-04-27T05:22:26;94462.25;;;5.25;100.00
13209;BME280;6669;42.678;23.332;2023-04-27T05:24:54;94458.16;;;5.32;100.00
13209;BME280;6669;42.678;23.332;2023-04-27T05:27:24;94466.53;;;5.34;100.00
13209;BME280;6669;42.678;23.332;2023-04-27T05:29:52;94462.81;;;5.47;100.00
13209;BME280;6669;42.678;23.332;2023-04-27T05:32:20;94465.19;;;5.58;100.00
13209;BME280;6669;42.678;23.332;2023-04-27T05:34:48;94469.53;;;5.57;100.00
13209;BME280;6669;42.678;23.332;2023-04-27T05:37:16;94478.41;;;5.45;100.00
13209;BME280;6669;42.678;23.332;2023-04-27T05:39:44;94462.53;;;5.50;100.00
13209;BME280;6669;42.678;23.332;2023-04-27T05:42:12;94480.56;;;5.50;100.00
13209;BME280;6669;42.678;23.332;2023-04-27T05:44:42;94470.38;;;5.48;100.00
13209;BME280;6669;42.678;23.332;2023-04-27T05:47:09;94474.75;;;5.48;100.00
13209;BME280;6669;42.678;23.332;2023-04-27T05:49:38;94466.28;;;5.55;100.00
13209;BME280;6669;42.678;23.332;2023-04-27T05:52:06;94476.28;;;5.59;100.00
13209;BME280;6669;42.678;23.332;2023-04-27T05:54:35;94453.97;;;5.49;100.00
13209;BME280;6669;42.678;23.332;2023-04-27T05:57:03;94468.81;;;5.65;100.00
13209;BME280;6669;42.678;23.332;2023-04-27T05:59:32;94465.41;;;5.65;100.00
13209;BME280;6669;42.678;23.332;2023-04-27T06:02:01;94456.28;;;5.70;100.00
13209;BME280;6669;42.678;23.332;2023-04-27T06:04:29;94467.72;;;5.86;100.00
13209;BME280;6669;42.678;23.332;2023-04-27T06:06:58;94470.38;;;5.94;100.00
13209;BME280;6669;42.678;23.332;2023-04-27T06:09:26;94466.13;;;6.03;100.00
13209;BME280;6669;42.678;23.332;2023-04-27T06:11:54;94467.31;;;6.09;100.00
13209;BME280;6669;42.678;23.332;2023-04-27T06:14:24;94476.06;;;6.16;100.00
13209;BME280;6669;42.678;23.332;2023-04-27T06:16:52;94467.31;;;6.27;100.00
13209;BME280;6669;42.678;23.332;2023-04-27T06:19:21;94460.47;;;6.17;100.00
13209;BME280;6669;42.678;23.332;2023-04-27T06:21:49;94451.44;;;6.21;100.00
13209;BME280;6669;42.678;23.332;2023-04-27T06:24:17;94470.25;;;6.32;100.00
13209;BME280;6669;42.678;23.332;2023-04-27T06:26:45;94463.63;;;6.29;100.00
13209;BME280;6669;42.678;23.332;2023-04-27T06:29:13;94457.19;;;6.33;100.00
13209;BME280;6669;42.678;23.332;2023-04-27T06:31:41;94454.44;;;6.35;100.00
13209;BME280;6669;42.678;23.332;2023-04-27T06:34:09;94457.81;;;6.53;100.00
13209;BME280;6669;42.678;23.332;2023-04-27T06:36:39;94452.84;;;6.60;100.00
13209;BME280;6669;42.678;23.332;2023-04-27T06:39:07;94448.34;;;6.62;100.00
13209;BME280;6669;42.678;23.332;2023-04-27T06:41:35;94465.91;;;6.59;100.00
13209;BME280;6669;42.678;23.332;2023-04-27T06:44:03;94449.91;;;6.81;100.00
13209;BME280;6669;42.678;23.332;2023-04-27T06:46:31;94448.22;;;6.98;100.00
13209;BME280;6669;42.678;23.332;2023-04-27T06:48:59;94447.78;;;7.11;100.00
13209;BME280;6669;42.678;23.332;2023-04-27T06:51:28;94450.94;;;7.23;100.00
13209;BME280;6669;42.678;23.332;2023-04-27T06:53:58;94453.09;;;7.44;100.00
13209;BME280;6669;42.678;23.332;2023-04-27T06:56:26;94451.72;;;7.66;100.00
13209;BME280;6669;42.678;23.332;2023-04-27T06:58:54;94437.66;;;7.69;100.00
13209;BME280;6669;42.678;23.332;2023-04-27T07:01:22;94449.63;;;7.78;100.00
13209;BME280;6669;42.678;23.332;2023-04-27T07:03:50;94449.66;;;7.87;99.26
13209;BME280;6669;42.678;23.332;2023-04-27T07:06:19;94430.88;;;7.84;98.97
13209;BME280;6669;42.678;23.332;2023-04-27T07:08:47;94439.41;;;7.68;98.98
13209;BME280;6669;42.678;23.332;2023-04-27T07:11:17;94449.00;;;7.84;99.86
13209;BME280;6669;42.678;23.332;2023-04-27T07:13:45;94454.69;;;7.88;99.89
13209;BME280;6669;42.678;23.332;2023-04-27T07:16:14;94445.63;;;7.92;99.47
13209;BME280;6669;42.678;23.332;2023-04-27T07:18:42;94453.53;;;7.99;96.36
13209;BME280;6669;42.678;23.332;2023-04-27T07:21:10;94443.69;;;7.94;96.45
13209;BME280;6669;42.678;23.332;2023-04-27T07:23:38;94433.66;;;7.99;96.86
13209;BME280;6669;42.678;23.332;2023-04-27T07:26:07;94452.09;;;7.96;96.21
13209;BME280;6669;42.678;23.332;2023-04-27T07:28:37;94442.88;;;7.94;92.53
13209;BME280;6669;42.678;23.332;2023-04-27T07:31:05;94420.53;;;7.93;92.18
13209;BME280;6669;42.678;23.332;2023-04-27T07:33:33;94440.94;;;7.96;87.94
13209;BME280;6669;42.678;23.332;2023-04-27T07:36:02;94452.09;;;8.05;87.19
13209;BME280;6669;42.678;23.332;2023-04-27T07:38:31;94440.13;;;8.12;86.58
13209;BME280;6669;42.678;23.332;2023-04-27T07:40:59;94434.16;;;8.28;86.77
13209;BME280;6669;42.678;23.332;2023-04-27T07:43:29;94434.13;;;8.36;84.25
13209;BME280;6669;42.678;23.332;2023-04-27T07:45:59;94418.94;;;8.41;82.17
13209;BME280;6669;42.678;23.332;2023-04-27T07:48:27;94450.22;;;8.48;81.62
13209;BME280;6669;42.678;23.332;2023-04-27T07:50:57;94438.38;;;8.54;83.08
13209;BME280;6669;42.678;23.332;2023-04-27T07:53:25;94433.47;;;8.83;83.66
13209;BME280;6669;42.678;23.332;2023-04-27T07:55:53;94428.72;;;9.04;79.28
13209;BME280;6669;42.678;23.332;2023-04-27T07:58:21;94431.88;;;9.22;79.88
13209;BME280;6669;42.678;23.332;2023-04-27T08:00:49;94440.56;;;9.46;77.18
13209;BME280;6669;42.678;23.332;2023-04-27T08:03:18;94436.31;;;9.05;74.06
13209;BME280;6669;42.678;23.332;2023-04-27T08:05:48;94440.72;;;8.96;72.10
13209;BME280;6669;42.678;23.332;2023-04-27T08:08:17;94442.50;;;8.96;74.38
13209;BME280;6669;42.678;23.332;2023-04-27T08:10:45;94436.34;;;8.97;77.34
13209;BME280;6669;42.678;23.332;2023-04-27T08:13:13;94448.78;;;9.10;75.56
13209;BME280;6669;42.678;23.332;2023-04-27T08:15:42;94450.22;;;9.12;74.33
13209;BME280;6669;42.678;23.332;2023-04-27T08:18:10;94445.75;;;8.98;73.54
13209;BME280;6669;42.678;23.332;2023-04-27T08:20:40;94426.75;;;9.14;75.41
13209;BME280;6669;42.678;23.332;2023-04-27T08:23:08;94424.03;;;9.39;74.27
13209;BME280;6669;42.678;23.332;2023-04-27T08:25:36;94440.97;;;9.58;73.01
13209;BME280;6669;42.678;23.332;2023-04-27T08:28:04;94433.50;;;9.86;73.89
13209;BME280;6669;42.678;23.332;2023-04-27T08:30:32;94425.63;;;10.26;72.70
13209;BME280;6669;42.678;23.332;2023-04-27T08:33:00;94424.63;;;10.50;71.15
13209;BME280;6669;42.678;23.332;2023-04-27T08:35:28;94438.97;;;10.61;69.26
13209;BME280;6669;42.678;23.332;2023-04-27T08:37:57;94439.69;;;10.31;69.72
13209;BME280;6669;42.678;23.332;2023-04-27T08:40:26;94438.88;;;10.54;70.51
13209;BME280;6669;42.678;23.332;2023-04-27T08:42:55;94418.88;;;10.55;69.50
13209;BME280;6669;42.678;23.332;2023-04-27T08:45:24;94450.53;;;9.89;69.68
13209;BME280;6669;42.678;23.332;2023-04-27T08:47:53;94440.53;;;9.77;73.04
13209;BME280;6669;42.678;23.332;2023-04-27T08:50:21;94442.72;;;9.89;72.92
13209;BME280;6669;42.678;23.332;2023-04-27T08:52:50;94452.50;;;9.87;74.10
13209;BME280;6669;42.678;23.332;2023-04-27T08:55:20;94436.56;;;9.90;73.40
13209;BME280;6669;42.678;23.332;2023-04-27T08:57:56;94433.88;;;10.06;73.30
13209;BME280;6669;42.678;23.332;2023-04-27T09:00:25;94444.53;;;10.11;72.46
13209;BME280;6669;42.678;23.332;2023-04-27T09:02:53;94442.78;;;10.12;71.33
13209;BME280;6669;42.678;23.332;2023-04-27T09:05:22;94437.91;;;10.09;71.06
13209;BME280;6669;42.678;23.332;2023-04-27T09:07:58;94420.31;;;9.96;71.32
13209;BME280;6669;42.678;23.332;2023-04-27T09:10:28;94433.81;;;10.14;70.77
13209;BME280;6669;42.678;23.332;2023-04-27T09:12:58;94415.84;;;10.51;72.36
13209;BME280;6669;42.678;23.332;2023-04-27T09:15:40;94417.31;;;10.84;69.68
13209;BME280;6669;42.678;23.332;2023-04-27T09:18:14;94416.69;;;10.82;69.02
13209;BME280;6669;42.678;23.332;2023-04-27T09:20:45;94425.75;;;10.71;68.38
13209;BME280;6669;42.678;23.332;2023-04-27T09:23:29;94419.91;;;10.69;68.59
13209;BME280;6669;42.678;23.332;2023-04-27T09:26:01;94422.59;;;10.60;67.94
13209;BME280;6669;42.678;23.332;2023-04-27T09:28:30;94421.25;;;10.65;70.05
13209;BME280;6669;42.678;23.332;2023-04-27T09:31:01;94411.75;;;11.02;68.92
13209;BME280;6669;42.678;23.332;2023-04-27T09:33:31;94410.25;;;11.07;66.73
13209;BME280;6669;42.678;23.332;2023-04-27T09:36:02;94420.06;;;10.52;66.67
13209;BME280;6669;42.678;23.332;2023-04-27T09:38:31;94393.00;;;10.46;68.99
13209;BME280;6669;42.678;23.332;2023-04-27T09:41:01;94408.16;;;10.58;67.66
13209;BME280;6669;42.678;23.332;2023-04-27T09:43:29;94402.19;;;10.87;67.31
13209;BME280;6669;42.678;23.332;2023-04-27T09:45:57;94403.69;;;10.96;66.71
13209;BME280;6669;42.678;23.332;2023-04-27T09:48:25;94391.41;;;11.05;66.23
13209;BME280;6669;42.678;23.332;2023-04-27T09:50:53;94401.34;;;10.87;64.21
13209;BME280;6669;42.678;23.332;2023-04-27T09:53:25;94386.91;;;10.99;63.92
13209;BME280;6669;42.678;23.332;2023-04-27T09:56:11;94391.66;;;11.10;63.86
13209;BME280;6669;42.678;23.332;2023-04-27T09:59:04;94387.31;;;11.48;63.03
13209;BME280;6669;42.678;23.332;2023-04-27T10:01:40;94384.66;;;11.63;62.85
13209;BME280;6669;42.678;23.332;2023-04-27T10:04:23;94383.50;;;11.87;63.33
13209;BME280;6669;42.678;23.332;2023-04-27T10:06:58;94390.06;;;11.61;62.91
13209;BME280;6669;42.678;23.332;2023-04-27T10:09:32;94389.09;;;11.62;63.04
13209;BME280;6669;42.678;23.332;2023-04-27T10:12:14;94385.19;;;11.73;63.24
13209;BME280;6669;42.678;23.332;2023-04-27T10:14:50;94410.38;;;11.51;61.76
13209;BME280;6669;42.678;23.332;2023-04-27T10:17:23;94384.66;;;11.26;63.02
13209;BME280;6669;42.678;23.332;2023-04-27T10:19:54;94381.44;;;11.24;62.31
13209;BME280;6669;42.678;23.332;2023-04-27T10:22:36;94392.00;;;11.22;62.71
13209;BME280;6669;42.678;23.332;2023-04-27T10:25:15;94380.09;;;11.28;63.46
13209;BME280;6669;42.678;23.332;2023-04-27T10:27:49;94393.53;;;11.32;63.29
13209;BME280;6669;42.678;23.332;2023-04-27T10:30:19;94377.66;;;11.85;62.71
13209;BME280;6669;42.678;23.332;2023-04-27T10:32:50;94381.91;;;12.29;62.27
13209;BME280;6669;42.678;23.332;2023-04-27T10:35:20;94374.94;;;12.36;59.91
13209;BME280;6669;42.678;23.332;2023-04-27T10:37:48;94375.75;;;12.65;59.32
13209;BME280;6669;42.678;23.332;2023-04-27T10:40:17;94377.25;;;13.16;57.86
13209;BME280;6669;42.678;23.332;2023-04-27T10:42:46;94384.75;;;12.91;57.72
13209;BME280;6669;42.678;23.332;2023-04-27T10:45:26;94377.44;;;12.80;57.69
13209;BME280;6669;42.678;23.332;2023-04-27T10:47:59;94384.00;;;12.69;56.80
13209;BME280;6669;42.678;23.332;2023-04-27T10:50:28;94380.63;;;12.18;57.73
13209;BME280;6669;42.678;23.332;2023-04-27T10:53:02;94376.75;;;12.64;58.38
13209;BME280;6669;42.678;23.332;2023-04-27T10:55:31;94389.63;;;12.72;56.86
13209;BME280;6669;42.678;23.332;2023-04-27T10:58:00;94379.09;;;12.87;56.33
13209;BME280;6669;42.678;23.332;2023-04-27T11:00:32;94386.25;;;12.79;56.63
13209;BME280;6669;42.678;23.332;2023-04-27T11:03:10;94383.41;;;12.67;55.46
13209;BME280;6669;42.678;23.332;2023-04-27T11:05:40;94372.53;;;12.63;55.59
13209;BME280;6669;42.678;23.332;2023-04-27T11:08:10;94372.72;;;12.62;56.15
13209;BME280;6669;42.678;23.332;2023-04-27T11:10:41;94371.59;;;12.42;54.94
13209;BME280;6669;42.678;23.332;2023-04-27T11:13:12;94354.72;;;12.38;55.02
13209;BME280;6669;42.678;23.332;2023-04-27T11:15:46;94368.31;;;12.62;55.58
13209;BME280;6669;42.678;23.332;2023-04-27T11:18:16;94367.50;;;12.62;55.85
13209;BME280;6669;42.678;23.332;2023-04-27T11:20:46;94376.09;;;12.27;56.84
13209;BME280;6669;42.678;23.332;2023-04-27T11:23:23;94366.97;;;12.45;56.63
13209;BME280;6669;42.678;23.332;2023-04-27T11:25:51;94375.19;;;12.41;57.77
13209;BME280;6669;42.678;23.332;2023-04-27T11:28:20;94377.56;;;12.36;58.17
13209;BME280;6669;42.678;23.332;2023-04-27T11:30:55;94386.22;;;12.72;58.62
13209;BME280;6669;42.678;23.332;2023-04-27T11:33:24;94375.53;;;12.60;56.74
13209;BME280;6669;42.678;23.332;2023-04-27T11:35:53;94382.72;;;12.58;57.51
13209;BME280;6669;42.678;23.332;2023-04-27T11:38:22;94375.28;;;12.83;57.43
13209;BME280;6669;42.678;23.332;2023-04-27T11:40:58;94387.44;;;12.76;56.99
13209;BME280;6669;42.678;23.332;2023-04-27T11:43:27;94380.16;;;12.36;57.10
13209;BME280;6669;42.678;23.332;2023-04-27T11:45:57;94396.56;;;12.30;56.06
13209;BME280;6669;42.678;23.332;2023-04-27T11:48:26;94380.97;;;11.93;57.46
13209;BME280;6669;42.678;23.332;2023-04-27T11:50:56;94402.97;;;11.69;57.66
13209;BME280;6669;42.678;23.332;2023-04-27T11:53:30;94407.59;;;11.89;58.50
13209;BME280;6669;42.678;23.332;2023-04-27T11:55:59;94409.63;;;11.93;57.44
13209;BME280;6669;42.678;23.332;2023-04-27T11:58:28;94387.34;;;11.69;57.45
13209;BME280;6669;42.678;23.332;2023-04-27T12:00:58;94395.34;;;11.68;56.45
13209;BME280;6669;42.678;23.332;2023-04-27T12:03:27;94389.84;;;11.77;58.37
13209;BME280;6669;42.678;23.332;2023-04-27T12:05:56;94392.75;;;11.89;57.94
13209;BME280;6669;42.678;23.332;2023-04-27T12:08:42;94393.91;;;12.02;58.57
13209;BME280;6669;42.678;23.332;2023-04-27T12:11:10;94382.09;;;11.84;57.53
13209;BME280;6669;42.678;23.332;2023-04-27T12:13:38;94403.81;;;11.55;58.53
13209;BME280;6669;42.678;23.332;2023-04-27T12:16:07;94397.44;;;11.57;59.19
13209;BME280;6669;42.678;23.332;2023-04-27T12:18:35;94390.59;;;11.56;57.93
13209;BME280;6669;42.678;23.332;2023-04-27T12:21:03;94393.66;;;11.97;57.81
13209;BME280;6669;42.678;23.332;2023-04-27T12:23:34;94393.91;;;12.02;58.00
13209;BME280;6669;42.678;23.332;2023-04-27T12:26:02;94399.66;;;11.97;58.04
13209;BME280;6669;42.678;23.332;2023-04-27T12:28:30;94393.06;;;12.23;57.92
13209;BME280;6669;42.678;23.332;2023-04-27T12:30:58;94399.59;;;12.34;56.83
13209;BME280;6669;42.678;23.332;2023-04-27T12:33:28;94409.34;;;12.03;57.17
13209;BME280;6669;42.678;23.332;2023-04-27T12:35:56;94397.53;;;11.86;57.76
13209;BME280;6669;42.678;23.332;2023-04-27T12:38:24;94400.03;;;11.94;57.96
13209;BME280;6669;42.678;23.332;2023-04-27T12:40:52;94415.19;;;11.69;57.58
13209;BME280;6669;42.678;23.332;2023-04-27T12:43:20;94405.06;;;11.59;58.10
13209;BME280;6669;42.678;23.332;2023-04-27T12:45:48;94400.59;;;11.74;58.49
13209;BME280;6669;42.678;23.332;2023-04-27T12:48:16;94399.91;;;12.02;58.36
13209;BME280;6669;42.678;23.332;2023-04-27T12:50:46;94399.56;;;12.05;58.03
13209;BME280;6669;42.678;23.332;2023-04-27T12:53:14;94413.19;;;11.92;58.02
13209;BME280;6669;42.678;23.332;2023-04-27T12:55:42;94366.81;;;11.59;57.38
13209;BME280;6669;42.678;23.332;2023-04-27T12:58:10;94393.78;;;11.73;57.60
13209;BME280;6669;42.678;23.332;2023-04-27T13:00:38;94399.66;;;11.97;58.09
13209;BME280;6669;42.678;23.332;2023-04-27T13:03:07;94405.25;;;12.16;57.39
13209;BME280;6669;42.678;23.332;2023-04-27T13:05:35;94407.78;;;12.09;57.66
13209;BME280;6669;42.678;23.332;2023-04-27T13:08:05;94403.09;;;12.19;57.09
13209;BME280;6669;42.678;23.332;2023-04-27T13:10:33;94400.78;;;12.31;56.68
13209;BME280;6669;42.678;23.332;2023-04-27T13:13:02;94399.50;;;12.49;57.00